Terminal Aerodrome Forecast
Issued by NWS

Home | Current Version | Previous Version | Text Only | Print | Product List | Glossary On
Versions: 1 2 3 4 5 6 7 8 9 10 11 12 13 14 15
000
FTUS44 KLIX 282300
TAFGPT
TAF
KGPT 282329Z 2900/2924 00000KT 6SM BR BKN004 OVC018
      TEMPO 2903/2906 -RA
     FM290600 01009KT P6SM OVC015
     FM290800 01007KT P6SM BKN035=

USA.gov is the U.S. government's official web portal to all federal, state and local government web resources and services.